VVDN/DAD METAR and TAF weather

Enter ICAO airport designator
Station Type Date Time Source
VVDN METAR 2019/11/22 01:00 UTC NOAA

VVDN 220100Z 24002KT 6000 SCT015 25/21 Q1018 NOSIG


Station Type Date Time Source
VVDN Decoded METAR 2019/11/22 01:00 UTC NOAA

Da Nang, Vietnam (VVDN) 16-02N 108-11E 7M
Nov 21, 2019 - 08:00 PM EST / 2019.11.22 0100 UTC
Wind: from the WSW (240 degrees) at 2 MPH (2 KT):0
Visibility: 3 mile(s):0
Sky conditions: partly cloudy
Temperature: 77 F (25 C)
Dew Point: 69 F (21 C)
Relative Humidity: 78%
Pressure (altimeter): 30.06 in. Hg (1018 hPa)
ob: VVDN 220100Z 24002KT 6000 SCT015 25/21 Q1018 NOSIG
cycle: 1

Station Type Date Time Source
VVDN TAF 2019/11/21 18:36 UTC NOAA

TAF VVDN 211700Z 2118/2218 06006KT 8000 FEW015 SCT050
BECMG 2120/2121 4000 BR
BECMG 2200/2201 8000 NSW

Example: see airport list